Time;durP1;ratioP1;P1;durP2;ratioP2;P2;SDS_P1;SDS_P2;PMS_P1;PMS_P2;Temp;Humidity;BMP_temperature;BMP_pressure;BME280_temperature;BME280_humidity;BME280_pressure;Samples;Min_cycle;Max_cycle;Signal;HPM_P1;HPM_P2
2021/12/12 00:00:04;;;;;;;18.93;9.40;;;-0.90;97.30;;;;;;5008352;28;20475;-88
2021/12/12 00:02:45;;;;;;;34.17;9.97;;;-0.90;97.30;;;;;;4993393;28;20460;-88
2021/12/12 00:05:14;;;;;;;33.07;9.97;;;-0.90;97.30;;;;;;4996276;28;20507;-87
2021/12/12 00:07:40;;;;;;;26.97;10.67;;;-0.80;97.30;;;;;;5014534;28;20416;-87
2021/12/12 00:10:12;;;;;;;22.30;9.27;;;-0.70;97.30;;;;;;5016632;28;20493;-87
2021/12/12 00:12:43;;;;;;;24.20;10.47;;;-0.70;97.30;;;;;;5008301;28;20841;-87
2021/12/12 00:15:11;;;;;;;21.10;8.57;;;-0.70;97.30;;;;;;4994616;28;20412;-87
2021/12/12 00:17:38;;;;;;;23.30;9.40;;;-0.60;97.30;;;;;;4994997;28;20412;-87
2021/12/12 00:20:04;;;;;;;31.60;11.47;;;-0.60;97.30;;;;;;4996350;28;20455;-88
2021/12/12 00:22:32;;;;;;;22.07;9.83;;;-0.60;97.30;;;;;;4995067;28;20424;-87
2021/12/12 00:24:58;;;;;;;22.03;9.07;;;-0.60;97.30;;;;;;4994660;28;20550;-88
2021/12/12 00:27:24;;;;;;;24.37;9.13;;;-0.60;97.30;;;;;;4994900;28;20419;-88
2021/12/12 00:29:51;;;;;;;24.77;8.60;;;-0.50;97.30;;;;;;5012402;28;20578;-87
2021/12/12 00:32:18;;;;;;;22.83;8.80;;;-0.50;97.30;;;;;;4994557;28;20435;-87
2021/12/12 00:34:54;;;;;;;36.40;10.60;;;-0.50;97.30;;;;;;4995051;28;20416;-87
2021/12/12 00:37:20;;;;;;;27.40;9.50;;;-0.40;97.30;;;;;;4995096;28;20420;-88
2021/12/12 00:39:52;;;;;;;30.30;10.10;;;-0.40;97.30;;;;;;4995082;28;20459;-87
2021/12/12 00:42:20;;;;;;;28.93;11.50;;;-0.30;97.30;;;;;;4994929;28;20408;-87
2021/12/12 00:44:51;;;;;;;28.83;10.70;;;-0.30;97.30;;;;;;4995092;28;20428;-88
2021/12/12 00:47:17;;;;;;;32.33;11.67;;;-0.30;97.30;;;;;;4994771;28;20407;-87
2021/12/12 00:49:44;;;;;;;29.87;11.10;;;-0.30;97.30;;;;;;4995151;28;20422;-88
2021/12/12 00:52:12;;;;;;;25.43;10.10;;;-0.30;97.30;;;;;;4994633;28;20508;-88
2021/12/12 00:54:40;;;;;;;21.37;9.80;;;-0.30;97.30;;;;;;4994755;28;20435;-88
2021/12/12 00:57:10;;;;;;;24.83;10.13;;;-0.30;97.30;;;;;;4994645;28;20499;-88
2021/12/12 00:59:37;;;;;;;26.20;9.47;;;-0.30;97.30;;;;;;4994375;28;20455;-87
2021/12/12 01:02:09;;;;;;;28.93;11.10;;;-0.30;97.30;;;;;;4993751;28;20409;-88
2021/12/12 01:04:45;;;;;;;26.70;11.13;;;-0.30;97.30;;;;;;4994805;28;20432;-88
2021/12/12 01:07:14;;;;;;;35.00;10.80;;;-0.30;97.30;;;;;;4994882;28;20411;-88
2021/12/12 01:09:55;;;;;;;23.57;10.43;;;-0.40;97.30;;;;;;4994992;28;20467;-88
2021/12/12 01:12:28;;;;;;;29.87;10.03;;;-0.40;97.30;;;;;;5012172;28;20416;-88
2021/12/12 01:14:59;;;;;;;23.47;9.63;;;-0.40;97.30;;;;;;4994503;28;20455;-88
2021/12/12 01:17:31;;;;;;;26.90;10.60;;;-0.40;97.30;;;;;;4994691;28;20609;-88
2021/12/12 01:20:10;;;;;;;29.07;9.53;;;-0.50;97.30;;;;;;4994471;28;20984;-88
2021/12/12 01:22:37;;;;;;;26.07;9.80;;;-0.50;97.30;;;;;;4994194;28;20428;-87
2021/12/12 01:25:21;;;;;;;32.83;10.40;;;-0.50;97.30;;;;;;5012245;28;20443;-87
2021/12/12 01:27:48;;;;;;;28.93;10.90;;;-0.50;97.30;;;;;;4994104;28;20478;-88
2021/12/12 01:30:15;;;;;;;29.10;11.20;;;-0.50;97.30;;;;;;4992967;28;21068;-88
2021/12/12 01:32:41;;;;;;;30.13;10.60;;;-0.50;97.30;;;;;;4994335;28;20810;-88
2021/12/12 01:35:14;;;;;;;30.63;10.13;;;-0.50;97.30;;;;;;4994174;28;20420;-87
2021/12/12 01:37:49;;;;;;;26.73;10.03;;;-0.50;97.30;;;;;;4994027;28;20953;-87
2021/12/12 01:40:23;;;;;;;24.27;9.40;;;-0.50;97.30;;;;;;4993852;28;20463;-87
2021/12/12 01:42:54;;;;;;;26.37;10.17;;;-0.50;97.30;;;;;;4993964;28;20440;-87
2021/12/12 01:45:26;;;;;;;29.57;11.30;;;-0.50;97.30;;;;;;4993925;28;20922;-87
2021/12/12 01:47:58;;;;;;;35.27;11.20;;;-0.50;97.30;;;;;;4993690;28;20416;-87
2021/12/12 01:50:36;;;;;;;34.90;12.60;;;-0.50;97.30;;;;;;5011895;28;20404;-88
2021/12/12 01:53:05;;;;;;;33.27;12.50;;;-0.50;97.30;;;;;;4993850;28;20494;-88
2021/12/12 01:55:37;;;;;;;30.97;10.60;;;-0.50;97.30;;;;;;4994014;28;20441;-87
2021/12/12 01:58:09;;;;;;;32.77;11.90;;;-0.50;97.30;;;;;;4993686;28;20500;-87
2021/12/12 02:00:44;;;;;;;26.73;10.03;;;-0.50;97.30;;;;;;4993907;28;20452;-88
2021/12/12 02:03:12;;;;;;;33.30;11.40;;;-0.60;97.30;;;;;;4993405;28;20575;-87
2021/12/12 02:05:38;;;;;;;33.47;10.57;;;-0.60;97.30;;;;;;4994356;28;20420;-87
2021/12/12 02:08:09;;;;;;;34.53;11.77;;;-0.60;97.30;;;;;;4993581;28;20445;-88
2021/12/12 02:10:43;;;;;;;36.17;10.50;;;-0.60;97.30;;;;;;4993898;28;20937;-87
2021/12/12 02:13:12;;;;;;;35.67;11.63;;;-0.60;97.30;;;;;;4993397;28;20986;-86
2021/12/12 02:15:42;;;;;;;30.40;11.70;;;-0.60;97.30;;;;;;4993549;28;20626;-87
2021/12/12 02:18:13;;;;;;;37.40;10.63;;;-0.60;97.30;;;;;;4993184;28;20488;-87
2021/12/12 02:20:48;;;;;;;50.07;12.13;;;-0.60;97.30;;;;;;4993100;28;20460;-87
2021/12/12 02:23:44;;;;;;;32.73;10.37;;;-0.60;97.30;;;;;;4993412;28;20435;-87
2021/12/12 02:37:10;;;;;;;24.10;10.47;;;-0.60;97.30;;;;;;5010952;28;20710;-87
2021/12/12 02:39:37;;;;;;;33.13;11.77;;;-0.50;97.30;;;;;;4993263;28;20455;-87
2021/12/12 02:42:07;;;;;;;29.83;11.30;;;-0.50;97.30;;;;;;4992654;28;20419;-87
2021/12/12 02:44:35;;;;;;;34.30;12.20;;;-0.50;97.30;;;;;;4993067;28;20419;-87
2021/12/12 02:47:10;;;;;;;45.50;12.53;;;-0.50;97.30;;;;;;5009433;28;20400;-88
2021/12/12 02:49:53;;;;;;;33.70;11.47;;;-0.50;97.30;;;;;;4993066;28;20424;-87
2021/12/12 02:52:31;;;;;;;30.17;10.57;;;-0.40;97.30;;;;;;4993189;28;20426;-87
2021/12/12 02:55:07;;;;;;;41.00;13.83;;;-0.40;97.30;;;;;;4992716;28;20431;-87
2021/12/12 02:57:32;;;;;;;34.73;10.20;;;-0.30;97.30;;;;;;4992776;28;20465;-88
2021/12/12 02:59:58;;;;;;;33.73;10.63;;;-0.20;97.30;;;;;;4992793;28;20538;-87
2021/12/12 03:02:28;;;;;;;29.17;10.73;;;-0.20;97.30;;;;;;5009767;28;20237;-87
2021/12/12 03:04:57;;;;;;;36.73;12.03;;;-0.10;97.30;;;;;;5010067;28;20416;-88
2021/12/12 03:07:23;;;;;;;24.90;10.20;;;-0.10;97.30;;;;;;4992251;28;20412;-87
2021/12/12 03:09:54;;;;;;;37.40;11.40;;;-0.10;97.30;;;;;;4992478;28;20420;-87
2021/12/12 03:12:40;;;;;;;26.13;10.10;;;0.00;97.30;;;;;;4992596;28;20467;-87
2021/12/12 03:15:14;;;;;;;32.30;11.00;;;0.00;97.30;;;;;;4991905;28;20412;-87
2021/12/12 03:17:41;;;;;;;26.30;9.97;;;0.00;97.30;;;;;;4992290;28;20423;-87
2021/12/12 03:20:25;;;;;;;33.73;10.97;;;0.00;97.30;;;;;;5009690;28;20543;-87
2021/12/12 03:22:59;;;;;;;29.73;11.60;;;0.10;97.30;;;;;;4992064;28;20965;-87
2021/12/12 03:25:25;;;;;;;25.77;10.60;;;0.10;97.30;;;;;;4991098;28;20438;-87
2021/12/12 03:27:51;;;;;;;33.63;12.30;;;0.10;97.30;;;;;;4992119;28;20412;-87
2021/12/12 03:30:18;;;;;;;31.03;9.93;;;0.10;97.30;;;;;;4992045;28;20420;-87
2021/12/12 03:32:44;;;;;;;29.50;11.47;;;0.10;97.30;;;;;;4991899;28;20455;-87
2021/12/12 03:35:10;;;;;;;31.60;10.57;;;0.10;97.30;;;;;;4992028;28;20419;-87
2021/12/12 03:37:36;;;;;;;33.73;11.97;;;0.00;97.30;;;;;;4992268;28;20481;-87
2021/12/12 03:40:16;;;;;;;36.80;11.70;;;0.00;97.30;;;;;;4988445;28;20202;-87
2021/12/12 03:42:42;;;;;;;39.07;11.80;;;0.00;97.30;;;;;;4972837;28;20516;-87
2021/12/12 03:45:09;;;;;;;34.93;11.50;;;0.00;97.30;;;;;;4972391;28;20515;-88
2021/12/12 03:47:40;;;;;;;32.50;10.90;;;0.10;97.30;;;;;;4972696;28;20420;-87
2021/12/12 03:50:17;;;;;;;27.33;11.40;;;0.10;97.30;;;;;;4972517;28;20432;-87
2021/12/12 03:52:44;;;;;;;35.83;10.90;;;0.10;97.30;;;;;;4972409;28;20447;-87
2021/12/12 03:55:11;;;;;;;26.70;11.23;;;0.10;97.30;;;;;;4972389;28;20410;-87
2021/12/12 03:57:37;;;;;;;33.47;12.50;;;0.10;97.30;;;;;;4972498;28;21029;-85
2021/12/12 04:00:06;;;;;;;31.87;12.93;;;0.00;97.30;;;;;;5005717;28;20467;-85
2021/12/12 04:02:31;;;;;;;42.13;15.23;;;0.00;97.30;;;;;;5009287;28;20197;-85
2021/12/12 04:04:57;;;;;;;34.40;11.10;;;0.00;97.30;;;;;;4991792;28;20419;-86
2021/12/12 04:07:25;;;;;;;34.17;12.53;;;0.00;97.30;;;;;;4992031;28;20667;-85
2021/12/12 04:09:52;;;;;;;23.10;9.80;;;0.00;97.30;;;;;;5009798;28;20431;-85
2021/12/12 04:12:19;;;;;;;28.60;11.40;;;0.00;97.30;;;;;;4991971;28;20515;-85
2021/12/12 04:14:46;;;;;;;31.27;11.40;;;0.00;97.30;;;;;;4991801;28;20428;-86
2021/12/12 04:17:17;;;;;;;32.90;11.40;;;0.00;97.30;;;;;;4992049;28;20722;-85
2021/12/12 04:19:45;;;;;;;32.07;13.17;;;0.00;97.30;;;;;;4991644;28;20513;-86
2021/12/12 04:22:10;;;;;;;29.30;10.30;;;0.00;97.30;;;;;;4991707;28;20915;-85
2021/12/12 04:24:39;;;;;;;29.23;10.80;;;0.00;97.30;;;;;;4991925;28;20459;-85
2021/12/12 04:27:07;;;;;;;23.63;8.90;;;0.00;97.30;;;;;;5009314;28;20177;-85
2021/12/12 04:29:39;;;;;;;34.23;10.83;;;0.00;97.30;;;;;;4992116;28;20428;-86
2021/12/12 04:32:12;;;;;;;27.70;10.83;;;0.00;97.30;;;;;;4991476;28;20423;-86
2021/12/12 04:34:43;;;;;;;29.33;10.07;;;0.00;97.30;;;;;;4991734;28;20507;-86
2021/12/12 04:37:09;;;;;;;33.90;10.80;;;0.00;97.30;;;;;;4992551;28;20957;-86
2021/12/12 04:39:38;;;;;;;36.77;12.33;;;0.00;97.30;;;;;;4995228;28;20471;-85
2021/12/12 04:42:26;;;;;;;29.00;10.27;;;-0.10;97.30;;;;;;4994896;28;20478;-86
2021/12/12 04:45:09;;;;;;;32.80;11.00;;;-0.10;97.30;;;;;;4995011;28;20417;-86
2021/12/12 04:51:02;;;;;;;31.83;10.97;;;-0.20;97.30;;;;;;5012715;28;20833;-85
2021/12/12 04:53:33;;;;;;;32.07;10.63;;;-0.20;97.30;;;;;;4994735;28;20436;-85
2021/12/12 04:56:16;;;;;;;34.60;11.03;;;-0.30;97.30;;;;;;4994975;28;20451;-85
2021/12/12 04:58:45;;;;;;;32.27;11.10;;;-0.30;97.30;;;;;;4994598;28;20444;-85
2021/12/12 05:01:16;;;;;;;34.20;11.27;;;-0.40;97.30;;;;;;4994630;28;20471;-85
2021/12/12 05:04:15;;;;;;;27.33;10.17;;;-0.40;97.30;;;;;;4994703;28;20463;-85
2021/12/12 05:06:46;;;;;;;29.27;10.20;;;-0.50;97.30;;;;;;5012206;28;20404;-85
2021/12/12 05:09:23;;;;;;;29.27;11.30;;;-0.50;97.30;;;;;;4995021;28;21011;-85
2021/12/12 05:12:00;;;;;;;26.70;9.73;;;-0.60;97.30;;;;;;4994779;28;20980;-85
2021/12/12 05:14:33;;;;;;;26.17;10.27;;;-0.60;97.30;;;;;;4994689;28;20881;-85
2021/12/12 05:17:10;;;;;;;30.23;10.03;;;-0.60;97.30;;;;;;4994610;28;20792;-85
2021/12/12 05:19:38;;;;;;;24.30;9.53;;;-0.60;97.30;;;;;;4995239;28;20521;-85
2021/12/12 05:22:19;;;;;;;34.47;11.30;;;-0.60;97.30;;;;;;4994045;28;20787;-86
2021/12/12 05:24:48;;;;;;;31.57;10.77;;;-0.60;97.30;;;;;;4975287;28;20420;-85
2021/12/12 05:27:17;;;;;;;28.73;10.27;;;-0.60;97.30;;;;;;4975008;28;20725;-85
2021/12/12 05:30:05;;;;;;;30.50;10.60;;;-0.60;97.30;;;;;;4992583;28;20421;-86
2021/12/12 05:32:33;;;;;;;43.03;12.20;;;-0.60;97.30;;;;;;4979723;28;20993;-85
2021/12/12 05:35:00;;;;;;;31.93;11.23;;;-0.60;97.30;;;;;;4975154;28;20799;-85
2021/12/12 05:37:27;;;;;;;32.50;11.80;;;-0.60;97.30;;;;;;4974873;28;20421;-85
2021/12/12 05:39:53;;;;;;;27.73;10.03;;;-0.60;97.30;;;;;;4986528;28;20455;-85
2021/12/12 05:42:20;;;;;;;25.70;9.60;;;-0.50;97.30;;;;;;4993869;28;20408;-85
2021/12/12 05:44:47;;;;;;;26.63;10.23;;;-0.50;97.30;;;;;;4994080;28;20452;-85
2021/12/12 05:47:12;;;;;;;32.80;10.57;;;-0.40;97.30;;;;;;4993828;28;20757;-85
2021/12/12 05:49:41;;;;;;;27.80;10.10;;;-0.40;97.30;;;;;;4993655;28;20423;-85
2021/12/12 05:52:13;;;;;;;28.33;9.00;;;-0.40;97.30;;;;;;4993540;28;20281;-85
2021/12/12 05:54:40;;;;;;;29.83;10.10;;;-0.40;97.30;;;;;;4993625;28;20420;-85
2021/12/12 05:57:09;;;;;;;30.47;11.37;;;-0.40;97.30;;;;;;4993716;28;20416;-85
2021/12/12 05:59:37;;;;;;;32.47;10.20;;;-0.30;97.30;;;;;;4993642;28;20513;-85
2021/12/12 06:02:05;;;;;;;32.17;11.47;;;-0.30;97.30;;;;;;4993369;28;20436;-85
2021/12/12 06:04:31;;;;;;;27.43;9.07;;;-0.30;97.30;;;;;;4993430;28;20472;-85
2021/12/12 06:06:57;;;;;;;25.27;9.70;;;-0.30;97.30;;;;;;4993719;28;20409;-85
2021/12/12 06:09:23;;;;;;;31.13;10.90;;;-0.30;97.30;;;;;;4994026;28;20185;-86
2021/12/12 06:11:52;;;;;;;29.20;9.23;;;-0.30;97.30;;;;;;4993484;28;20455;-85
2021/12/12 06:14:18;;;;;;;26.10;9.10;;;-0.30;97.30;;;;;;4993367;28;20440;-85
2021/12/12 06:16:45;;;;;;;27.23;9.37;;;-0.30;97.30;;;;;;4993285;28;20411;-85
2021/12/12 06:19:18;;;;;;;29.87;11.33;;;-0.20;97.30;;;;;;4993298;28;20455;-85
2021/12/12 06:21:44;;;;;;;21.80;9.90;;;-0.20;97.30;;;;;;4993301;28;20408;-85
2021/12/12 06:24:10;;;;;;;28.10;11.30;;;-0.30;97.30;;;;;;4993380;28;20436;-85
2021/12/12 06:26:37;;;;;;;28.73;10.13;;;-0.30;97.30;;;;;;4992914;28;20782;-85
2021/12/12 06:29:03;;;;;;;26.90;9.13;;;-0.30;97.30;;;;;;5010786;28;20913;-85
2021/12/12 06:31:29;;;;;;;31.63;10.30;;;-0.30;97.30;;;;;;5010646;28;20418;-85
2021/12/12 06:33:56;;;;;;;25.30;9.53;;;-0.30;97.30;;;;;;4992936;28;20515;-86
2021/12/12 06:36:22;;;;;;;31.33;10.30;;;-0.30;97.30;;;;;;4992971;28;20215;-85
2021/12/12 06:38:50;;;;;;;22.27;9.00;;;-0.30;97.30;;;;;;4992938;28;20428;-85
2021/12/12 06:41:17;;;;;;;28.67;9.73;;;-0.30;97.30;;;;;;4992782;28;20416;-86
2021/12/12 06:43:43;;;;;;;30.87;9.47;;;-0.30;97.30;;;;;;4992996;28;20448;-85
2021/12/12 06:46:10;;;;;;;18.20;8.13;;;-0.30;97.30;;;;;;4992798;28;20922;-85
2021/12/12 06:48:39;;;;;;;27.00;9.33;;;-0.30;97.30;;;;;;4992728;28;20232;-85
2021/12/12 06:51:07;;;;;;;26.60;8.67;;;-0.30;97.30;;;;;;4992917;28;20431;-86
2021/12/12 06:53:36;;;;;;;27.90;8.83;;;-0.30;97.30;;;;;;4992421;28;20427;-85
2021/12/12 06:56:04;;;;;;;26.70;9.50;;;-0.30;97.30;;;;;;4993080;28;20436;-86
2021/12/12 06:58:31;;;;;;;29.23;9.73;;;-0.30;97.30;;;;;;4992748;28;20823;-86
2021/12/12 07:01:08;;;;;;;22.93;8.40;;;-0.30;97.30;;;;;;4992120;28;20498;-86
2021/12/12 07:03:34;;;;;;;28.23;9.27;;;-0.20;97.30;;;;;;5005548;28;20475;-86
2021/12/12 07:06:01;;;;;;;25.20;9.47;;;-0.20;97.30;;;;;;4988563;28;20417;-86
2021/12/12 07:08:27;;;;;;;28.70;8.63;;;-0.20;97.30;;;;;;4988785;28;20416;-86
2021/12/12 07:10:52;;;;;;;23.87;10.27;;;-0.10;97.30;;;;;;4989503;28;20435;-86
2021/12/12 07:13:19;;;;;;;31.00;9.67;;;-0.10;97.30;;;;;;4990602;28;20992;-86
2021/12/12 07:15:49;;;;;;;22.57;8.80;;;-0.10;97.30;;;;;;4996186;28;20203;-86
2021/12/12 07:18:18;;;;;;;23.03;7.87;;;-0.10;97.30;;;;;;4991259;28;20531;-86
2021/12/12 07:20:49;;;;;;;30.83;8.93;;;0.00;97.30;;;;;;4991035;28;20464;-86
2021/12/12 07:23:15;;;;;;;29.47;9.67;;;0.00;97.30;;;;;;4991092;28;20451;-86
2021/12/12 07:25:43;;;;;;;23.37;9.60;;;0.00;97.30;;;;;;4990860;28;20420;-86
2021/12/12 07:28:09;;;;;;;19.40;7.00;;;0.00;97.30;;;;;;4990678;28;20191;-86
2021/12/12 07:30:35;;;;;;;26.47;8.63;;;0.00;97.30;;;;;;4990381;28;20510;-86
2021/12/12 07:33:04;;;;;;;19.97;8.73;;;0.00;97.30;;;;;;4991271;28;20459;-86
2021/12/12 07:35:33;;;;;;;17.70;8.57;;;0.10;97.30;;;;;;4990899;28;20489;-85
2021/12/12 07:37:59;;;;;;;23.90;8.20;;;0.10;97.30;;;;;;4990435;28;20438;-86
2021/12/12 07:40:25;;;;;;;25.03;8.03;;;0.20;97.30;;;;;;4990852;28;20463;-86
2021/12/12 07:42:51;;;;;;;23.97;8.80;;;0.30;97.30;;;;;;4991036;28;20994;-86
2021/12/12 07:45:20;;;;;;;19.97;8.23;;;0.30;97.30;;;;;;4990828;28;20204;-86
2021/12/12 07:47:46;;;;;;;27.90;8.60;;;0.30;97.30;;;;;;5007135;28;20973;-86
2021/12/12 07:50:16;;;;;;;20.47;8.30;;;0.40;97.30;;;;;;4991188;28;20613;-86
2021/12/12 07:52:44;;;;;;;25.17;8.23;;;0.40;97.30;;;;;;4990845;28;20910;-86
2021/12/12 07:55:10;;;;;;;18.03;7.40;;;0.50;97.30;;;;;;4991229;28;20996;-86
2021/12/12 07:57:36;;;;;;;20.80;8.13;;;0.50;97.30;;;;;;4990719;28;20499;-86
2021/12/12 08:00:07;;;;;;;19.60;7.93;;;0.50;97.30;;;;;;5008419;28;20346;-86
2021/12/12 08:02:33;;;;;;;24.57;8.80;;;0.60;97.30;;;;;;4990204;28;20813;-86
2021/12/12 08:04:59;;;;;;;28.87;8.20;;;0.80;97.30;;;;;;4990776;28;20412;-86
2021/12/12 08:07:25;;;;;;;27.07;9.43;;;1.30;97.30;;;;;;4990378;28;20435;-86
2021/12/12 08:09:52;;;;;;;23.90;9.50;;;1.20;97.30;;;;;;4990776;28;20426;-86
2021/12/12 08:12:23;;;;;;;25.43;7.20;;;1.20;97.30;;;;;;5013277;28;20422;-85
2021/12/12 08:14:51;;;;;;;21.17;9.03;;;1.10;97.30;;;;;;4998161;28;20502;-86
2021/12/12 08:17:20;;;;;;;31.70;8.67;;;1.10;97.30;;;;;;4997590;28;20434;-86
2021/12/12 08:19:48;;;;;;;18.67;7.20;;;1.10;97.30;;;;;;4997809;28;20459;-86
2021/12/12 08:22:14;;;;;;;26.83;8.67;;;1.20;97.30;;;;;;4997488;28;20426;-86
2021/12/12 08:24:40;;;;;;;20.73;7.27;;;1.20;97.30;;;;;;4997730;28;20427;-85
2021/12/12 08:27:08;;;;;;;20.27;7.20;;;1.20;97.30;;;;;;4995235;28;20372;-86
2021/12/12 08:29:35;;;;;;;16.17;7.97;;;1.30;97.30;;;;;;4994268;28;20420;-87
2021/12/12 08:32:05;;;;;;;21.70;7.03;;;1.40;97.30;;;;;;4993861;28;20419;-86
2021/12/12 08:34:31;;;;;;;15.93;7.17;;;1.40;97.30;;;;;;4991904;28;20420;-86
2021/12/12 08:36:58;;;;;;;22.57;6.93;;;1.50;97.30;;;;;;4994562;28;20422;-87
2021/12/12 08:39:27;;;;;;;19.87;8.03;;;1.50;97.30;;;;;;4994744;28;20460;-87
2021/12/12 08:41:54;;;;;;;21.73;8.80;;;1.60;97.30;;;;;;4997339;28;20415;-86
2021/12/12 08:44:19;;;;;;;21.70;8.40;;;1.60;97.30;;;;;;4997318;28;20424;-87
2021/12/12 08:46:48;;;;;;;22.63;9.03;;;1.70;97.30;;;;;;4998089;28;20417;-87
2021/12/12 08:49:16;;;;;;;23.50;9.03;;;1.70;97.30;;;;;;4998122;28;20177;-88
2021/12/12 08:51:50;;;;;;;28.20;8.10;;;1.80;97.30;;;;;;5015266;28;20431;-86
2021/12/12 08:54:24;;;;;;;18.67;6.70;;;1.80;97.30;;;;;;4997408;28;20519;-87
2021/12/12 08:56:54;;;;;;;20.77;8.87;;;1.90;97.30;;;;;;4992402;28;20412;-87
2021/12/12 08:59:23;;;;;;;15.23;6.67;;;1.90;97.30;;;;;;4992330;28;20456;-86
2021/12/12 09:01:52;;;;;;;17.47;7.60;;;2.00;97.30;;;;;;4993358;28;20418;-86
2021/12/12 09:04:18;;;;;;;22.40;9.00;;;2.00;97.30;;;;;;4992651;28;20471;-87
2021/12/12 09:06:57;;;;;;;25.00;8.67;;;2.00;97.30;;;;;;4993306;28;20907;-86
2021/12/12 09:09:27;;;;;;;18.80;7.03;;;2.00;97.30;;;;;;5010735;28;20463;-86
2021/12/12 09:12:03;;;;;;;21.33;8.77;;;2.00;97.30;;;;;;4993603;28;20420;-88
2021/12/12 09:14:36;;;;;;;17.83;8.70;;;2.00;97.30;;;;;;4995102;28;20460;-88
2021/12/12 09:17:11;;;;;;;20.13;7.33;;;2.00;97.30;;;;;;4995547;28;20505;-86
2021/12/12 09:19:45;;;;;;;18.27;7.27;;;2.00;97.30;;;;;;4992447;28;20808;-87
2021/12/12 09:22:25;;;;;;;20.63;7.07;;;2.10;97.30;;;;;;5012220;28;20409;-88
2021/12/12 09:25:02;;;;;;;23.73;7.57;;;2.10;97.30;;;;;;4992459;28;20953;-88
2021/12/12 09:27:40;;;;;;;23.57;8.70;;;2.10;97.30;;;;;;5011746;28;20422;-86
2021/12/12 09:30:06;;;;;;;18.80;7.77;;;2.20;97.30;;;;;;4994465;28;20432;-86
2021/12/12 09:32:39;;;;;;;20.97;8.67;;;2.20;97.30;;;;;;5012562;28;20439;-87
2021/12/12 09:35:16;;;;;;;19.83;6.93;;;2.20;97.30;;;;;;4995065;28;20439;-87
2021/12/12 09:37:47;;;;;;;22.40;8.27;;;2.30;97.30;;;;;;4995562;28;20443;-87
2021/12/12 09:40:34;;;;;;;22.93;8.47;;;2.40;97.30;;;;;;5012608;28;20483;-87
2021/12/12 09:43:10;;;;;;;17.27;6.20;;;2.40;97.30;;;;;;4974364;28;21001;-87
2021/12/12 09:46:00;;;;;;;16.90;6.60;;;2.50;97.30;;;;;;4975807;28;20424;-87
2021/12/12 09:51:50;;;;;;;20.27;8.43;;;2.60;97.30;;;;;;5011770;28;20952;-87
2021/12/12 09:54:59;;;;;;;18.77;8.03;;;2.60;97.30;;;;;;4995611;28;20515;-85
2021/12/12 09:57:53;;;;;;;18.10;7.97;;;2.70;97.30;;;;;;4934881;29;20458;-87
2021/12/12 10:00:29;;;;;;;16.60;6.70;;;2.70;97.30;;;;;;4936892;29;20455;-86
2021/12/12 10:03:16;;;;;;;14.80;6.83;;;2.80;97.30;;;;;;4965028;28;20474;-87
2021/12/12 10:05:53;;;;;;;20.70;6.60;;;2.80;97.30;;;;;;5006543;28;20884;-86
2021/12/12 10:08:35;;;;;;;19.37;7.30;;;2.80;97.30;;;;;;5006486;28;21014;-86
2021/12/12 10:11:06;;;;;;;17.87;8.13;;;2.90;97.30;;;;;;5009316;28;20517;-87
2021/12/12 10:13:40;;;;;;;18.10;6.40;;;2.90;97.30;;;;;;4992835;28;20445;-87
2021/12/12 10:16:21;;;;;;;13.63;6.03;;;3.00;97.30;;;;;;4976915;28;20409;-87
2021/12/12 10:19:03;;;;;;;14.47;5.93;;;3.00;97.30;;;;;;4994485;28;20978;-86
2021/12/12 10:21:56;;;;;;;15.87;6.50;;;3.10;97.30;;;;;;4979093;28;20421;-87
2021/12/12 10:24:51;;;;;;;20.53;6.97;;;3.20;97.30;;;;;;5012493;28;20471;-87
2021/12/12 10:27:54;;;;;;;12.43;5.93;;;3.20;97.30;;;;;;5022255;28;20984;-87
2021/12/12 10:30:23;;;;;;;22.37;6.73;;;3.30;97.30;;;;;;5032375;28;20411;-87
2021/12/12 10:33:52;;;;;;;17.20;5.80;;;3.30;97.30;;;;;;5024338;28;20936;-86
2021/12/12 10:36:39;;;;;;;23.27;7.50;;;3.30;97.30;;;;;;4915700;29;20518;-86
2021/12/12 10:39:37;;;;;;;19.13;7.33;;;3.30;97.30;;;;;;4898832;29;20431;-87
2021/12/12 10:42:33;;;;;;;12.70;6.00;;;3.30;97.30;;;;;;4999841;28;20515;-87
2021/12/12 10:45:36;;;;;;;17.13;6.97;;;3.40;97.30;;;;;;4998127;28;20412;-88
2021/12/12 10:55:03;;;;;;;14.13;6.27;;;3.40;97.30;;;;;;4957922;28;20451;-87
2021/12/12 10:57:37;;;;;;;15.07;6.07;;;3.40;97.30;;;;;;5007731;28;20461;-87
2021/12/12 11:00:24;;;;;;;11.10;5.20;;;3.40;97.30;;;;;;4995710;28;20505;-88
2021/12/12 11:03:16;;;;;;;16.33;6.20;;;3.40;97.30;;;;;;4996871;28;20455;-87
2021/12/12 11:05:47;;;;;;;15.70;5.63;;;3.50;97.30;;;;;;5013812;28;20419;-87
2021/12/12 11:08:31;;;;;;;19.17;7.43;;;3.50;97.30;;;;;;4996118;28;20911;-87
2021/12/12 11:10:59;;;;;;;14.67;7.20;;;3.50;97.30;;;;;;4995931;28;20423;-88
2021/12/12 11:14:13;;;;;;;24.90;7.07;;;3.50;97.30;;;;;;4995622;28;20455;-88
2021/12/12 11:16:52;;;;;;;17.93;6.37;;;3.60;97.30;;;;;;4991567;28;20424;-87
2021/12/12 11:19:28;;;;;;;12.37;4.90;;;3.60;97.30;;;;;;4976490;28;20448;-87
2021/12/12 11:22:12;;;;;;;16.47;6.60;;;3.70;97.30;;;;;;4995735;28;20461;-87
2021/12/12 11:24:42;;;;;;;20.83;8.17;;;3.70;97.30;;;;;;5013929;28;20420;-87
2021/12/12 11:27:14;;;;;;;15.80;6.83;;;3.70;97.30;;;;;;4995507;28;20531;-86
2021/12/12 11:29:45;;;;;;;11.90;5.23;;;3.80;97.30;;;;;;4996352;28;20457;-88
2021/12/12 11:32:16;;;;;;;12.77;6.83;;;3.80;97.30;;;;;;4996602;28;20427;-87
2021/12/12 11:34:49;;;;;;;14.73;4.83;;;3.80;97.30;;;;;;4996087;28;20438;-88
2021/12/12 11:37:32;;;;;;;13.97;5.80;;;3.90;97.30;;;;;;4997110;28;20412;-88
2021/12/12 11:40:05;;;;;;;13.43;5.30;;;3.90;97.30;;;;;;4995902;28;20533;-88
2021/12/12 11:42:56;;;;;;;10.37;5.30;;;3.90;97.30;;;;;;5013241;28;20522;-88
2021/12/12 11:45:39;;;;;;;17.57;7.90;;;4.00;97.30;;;;;;4997011;28;20424;-88
2021/12/12 11:48:35;;;;;;;9.50;4.47;;;4.00;97.30;;;;;;5000383;28;20706;-89
2021/12/12 11:51:24;;;;;;;7.90;4.90;;;4.00;97.30;;;;;;4999965;28;20444;-88
2021/12/12 11:54:19;;;;;;;11.80;4.60;;;4.00;97.30;;;;;;4999589;28;20436;-88
2021/12/12 11:56:53;;;;;;;18.13;5.27;;;4.10;97.30;;;;;;4988733;28;20425;-88
2021/12/12 11:59:30;;;;;;;10.97;4.00;;;4.10;97.30;;;;;;4999455;28;20453;-88
2021/12/12 12:02:52;;;;;;;13.40;4.60;;;4.20;97.30;;;;;;5002284;28;20949;-87
2021/12/12 12:05:44;;;;;;;12.03;5.67;;;4.20;97.30;;;;;;4979750;28;20428;-88
2021/12/12 12:08:18;;;;;;;10.13;4.40;;;4.30;97.30;;;;;;4999229;28;20416;-88
2021/12/12 12:11:23;;;;;;;9.77;5.27;;;4.40;97.30;;;;;;5002351;28;20521;-88
2021/12/12 12:13:55;;;;;;;11.80;5.60;;;4.30;97.30;;;;;;5001812;28;20509;-88
2021/12/12 12:16:35;;;;;;;8.10;4.40;;;4.40;97.30;;;;;;5002934;28;21140;-88
2021/12/12 12:19:13;;;;;;;9.35;4.25;;;4.40;97.30;;;;;;5003226;28;20407;-88
2021/12/12 12:22:12;;;;;;;9.60;4.70;;;4.40;97.30;;;;;;5003333;28;20415;-89
2021/12/12 12:24:56;;;;;;;9.67;4.33;;;4.40;97.30;;;;;;5003224;28;20443;-88
2021/12/12 12:27:40;;;;;;;10.53;4.40;;;4.50;97.30;;;;;;5003555;28;20404;-89
2021/12/12 12:30:31;;;;;;;11.97;5.00;;;4.50;97.30;;;;;;5003920;28;20408;-88
2021/12/12 12:33:24;;;;;;;11.00;4.90;;;4.60;97.30;;;;;;5002699;28;20804;-88
2021/12/12 12:36:12;;;;;;;11.43;4.33;;;4.60;97.30;;;;;;5001834;28;20410;-88
2021/12/12 12:39:23;;;;;;;9.63;3.83;;;4.60;97.30;;;;;;5019085;28;20392;-88
2021/12/12 12:42:42;;;;;;;13.43;4.73;;;4.60;97.30;;;;;;5001006;28;20420;-88
2021/12/12 12:45:29;;;;;;;11.77;5.33;;;4.50;97.30;;;;;;4983289;28;20855;-87
2021/12/12 12:48:33;;;;;;;11.57;4.40;;;4.50;97.30;;;;;;5017433;28;20435;-86
2021/12/12 12:51:35;;;;;;;9.40;4.43;;;4.50;97.30;;;;;;5001139;28;20422;-87
2021/12/12 12:54:14;;;;;;;9.70;4.53;;;4.50;97.30;;;;;;4991357;28;20443;-88
2021/12/12 12:57:20;;;;;;;11.03;4.17;;;4.50;97.30;;;;;;4998057;28;20405;-88
2021/12/12 13:00:07;;;;;;;11.03;4.87;;;4.50;97.30;;;;;;4994208;28;20518;-88
2021/12/12 13:02:39;;;;;;;6.13;3.80;;;4.40;97.30;;;;;;4992875;28;20428;-87
2021/12/12 13:05:07;;;;;;;7.20;4.00;;;4.40;97.30;;;;;;4995249;28;20425;-88
2021/12/12 13:07:47;;;;;;;8.10;4.47;;;4.40;97.30;;;;;;4994575;28;20833;-88
2021/12/12 13:10:21;;;;;;;11.50;5.30;;;4.40;97.30;;;;;;4993456;28;20432;-87
2021/12/12 13:13:27;;;;;;;8.90;4.53;;;4.40;97.30;;;;;;4996471;28;20455;-87
2021/12/12 13:16:03;;;;;;;6.37;4.03;;;4.30;97.30;;;;;;4998157;28;20431;-87
2021/12/12 13:18:55;;;;;;;11.33;4.60;;;4.30;97.30;;;;;;5014273;28;20419;-87
2021/12/12 13:21:34;;;;;;;15.73;6.50;;;4.30;97.30;;;;;;4997929;28;20546;-87
2021/12/12 13:24:13;;;;;;;14.80;4.70;;;4.30;97.30;;;;;;4997631;28;20447;-87
2021/12/12 13:27:31;;;;;;;5.20;3.73;;;4.30;97.30;;;;;;4995216;28;20904;-87
2021/12/12 13:30:27;;;;;;;7.30;4.50;;;4.30;97.30;;;;;;4996855;28;20417;-87
2021/12/12 13:33:16;;;;;;;6.53;3.70;;;4.30;97.30;;;;;;4996563;28;20528;-87
2021/12/12 13:36:04;;;;;;;10.07;4.00;;;4.30;97.30;;;;;;4997918;28;21082;-87
2021/12/12 13:38:39;;;;;;;7.50;3.97;;;4.20;97.30;;;;;;4997651;28;20446;-87